sensor_id;sensor_type;location;lat;lon;timestamp;temperature;humidity
13848;DHT22;6994;49.752;6.094;2023-05-10T00:01:19;13.20;99.90
13848;DHT22;6994;49.752;6.094;2023-05-10T00:03:46;13.20;99.90
13848;DHT22;6994;49.752;6.094;2023-05-10T00:06:14;13.10;99.90
13848;DHT22;6994;49.752;6.094;2023-05-10T00:08:41;12.90;99.90
13848;DHT22;6994;49.752;6.094;2023-05-10T00:11:08;12.80;99.90
13848;DHT22;6994;49.752;6.094;2023-05-10T00:13:35;12.80;99.90
13848;DHT22;6994;49.752;6.094;2023-05-10T00:16:02;12.70;99.90
13848;DHT22;6994;49.752;6.094;2023-05-10T00:18:30;12.60;99.90
13848;DHT22;6994;49.752;6.094;2023-05-10T00:20:57;12.80;99.90
13848;DHT22;6994;49.752;6.094;2023-05-10T00:23:24;12.80;99.90
13848;DHT22;6994;49.752;6.094;2023-05-10T00:25:51;12.80;99.90
13848;DHT22;6994;49.752;6.094;2023-05-10T00:28:18;12.70;99.90
13848;DHT22;6994;49.752;6.094;2023-05-10T00:30:46;12.50;99.90
13848;DHT22;6994;49.752;6.094;2023-05-10T00:33:14;12.50;99.90
13848;DHT22;6994;49.752;6.094;2023-05-10T00:35:42;12.40;99.90
13848;DHT22;6994;49.752;6.094;2023-05-10T00:38:09;12.40;99.90
13848;DHT22;6994;49.752;6.094;2023-05-10T00:40:36;12.30;99.90
13848;DHT22;6994;49.752;6.094;2023-05-10T00:43:03;12.30;99.90
13848;DHT22;6994;49.752;6.094;2023-05-10T00:45:31;12.30;99.90
13848;DHT22;6994;49.752;6.094;2023-05-10T00:47:58;12.20;99.90
13848;DHT22;6994;49.752;6.094;2023-05-10T00:50:25;12.20;99.90
13848;DHT22;6994;49.752;6.094;2023-05-10T00:52:52;12.20;99.90
13848;DHT22;6994;49.752;6.094;2023-05-10T00:55:19;12.20;99.90
13848;DHT22;6994;49.752;6.094;2023-05-10T00:57:47;12.30;99.90
13848;DHT22;6994;49.752;6.094;2023-05-10T01:00:14;12.40;99.90
13848;DHT22;6994;49.752;6.094;2023-05-10T01:02:42;12.30;99.90
13848;DHT22;6994;49.752;6.094;2023-05-10T01:05:09;12.30;99.90
13848;DHT22;6994;49.752;6.094;2023-05-10T01:07:36;12.30;99.90
13848;DHT22;6994;49.752;6.094;2023-05-10T01:10:04;12.20;99.90
13848;DHT22;6994;49.752;6.094;2023-05-10T01:12:30;12.20;99.90
13848;DHT22;6994;49.752;6.094;2023-05-10T01:14:58;12.20;99.90
13848;DHT22;6994;49.752;6.094;2023-05-10T01:17:25;12.20;99.90
13848;DHT22;6994;49.752;6.094;2023-05-10T01:19:52;12.20;99.90
13848;DHT22;6994;49.752;6.094;2023-05-10T01:28:25;12.50;99.90
13848;DHT22;6994;49.752;6.094;2023-05-10T01:31:08;12.40;99.90
13848;DHT22;6994;49.752;6.094;2023-05-10T01:36:24;12.40;99.90
13848;DHT22;6994;49.752;6.094;2023-05-10T01:38:56;12.40;99.90
13848;DHT22;6994;49.752;6.094;2023-05-10T01:41:45;12.50;99.90
13848;DHT22;6994;49.752;6.094;2023-05-10T01:46:39;12.50;99.90
13848;DHT22;6994;49.752;6.094;2023-05-10T01:49:18;12.50;99.90
13848;DHT22;6994;49.752;6.094;2023-05-10T01:51:42;12.50;99.90
13848;DHT22;6994;49.752;6.094;2023-05-10T01:54:08;12.60;99.90
13848;DHT22;6994;49.752;6.094;2023-05-10T01:56:35;12.60;99.90
13848;DHT22;6994;49.752;6.094;2023-05-10T01:59:04;12.60;99.90
13848;DHT22;6994;49.752;6.094;2023-05-10T02:01:30;12.90;99.90
13848;DHT22;6994;49.752;6.094;2023-05-10T02:03:57;13.00;99.90
13848;DHT22;6994;49.752;6.094;2023-05-10T02:06:24;13.20;99.90
13848;DHT22;6994;49.752;6.094;2023-05-10T02:08:51;13.30;99.90
13848;DHT22;6994;49.752;6.094;2023-05-10T02:11:19;13.30;99.90
13848;DHT22;6994;49.752;6.094;2023-05-10T02:13:46;13.50;99.90
13848;DHT22;6994;49.752;6.094;2023-05-10T02:16:13;13.50;99.90
13848;DHT22;6994;49.752;6.094;2023-05-10T02:18:40;13.40;99.90
13848;DHT22;6994;49.752;6.094;2023-05-10T02:21:08;13.30;99.90
13848;DHT22;6994;49.752;6.094;2023-05-10T02:23:35;13.30;99.90
13848;DHT22;6994;49.752;6.094;2023-05-10T02:26:02;13.20;99.90
13848;DHT22;6994;49.752;6.094;2023-05-10T02:28:29;13.20;99.90
13848;DHT22;6994;49.752;6.094;2023-05-10T02:30:56;13.10;99.90
13848;DHT22;6994;49.752;6.094;2023-05-10T02:33:23;13.10;99.90
13848;DHT22;6994;49.752;6.094;2023-05-10T02:35:51;13.10;99.90
13848;DHT22;6994;49.752;6.094;2023-05-10T02:38:18;13.10;99.90
13848;DHT22;6994;49.752;6.094;2023-05-10T02:40:45;13.00;99.90
13848;DHT22;6994;49.752;6.094;2023-05-10T02:43:12;13.30;99.90
13848;DHT22;6994;49.752;6.094;2023-05-10T02:45:40;13.50;99.90
13848;DHT22;6994;49.752;6.094;2023-05-10T02:48:07;13.60;99.90
13848;DHT22;6994;49.752;6.094;2023-05-10T02:50:34;13.50;99.90
13848;DHT22;6994;49.752;6.094;2023-05-10T02:53:02;13.40;99.90
13848;DHT22;6994;49.752;6.094;2023-05-10T02:55:35;13.30;99.90
13848;DHT22;6994;49.752;6.094;2023-05-10T02:58:00;13.30;99.90
13848;DHT22;6994;49.752;6.094;2023-05-10T03:00:26;13.30;99.90
13848;DHT22;6994;49.752;6.094;2023-05-10T03:02:54;13.20;99.90
13848;DHT22;6994;49.752;6.094;2023-05-10T03:05:21;13.20;99.90
13848;DHT22;6994;49.752;6.094;2023-05-10T03:07:49;13.10;99.90
13848;DHT22;6994;49.752;6.094;2023-05-10T03:10:16;13.10;99.90
13848;DHT22;6994;49.752;6.094;2023-05-10T03:12:57;13.20;99.90
13848;DHT22;6994;49.752;6.094;2023-05-10T03:17:57;13.20;99.90
13848;DHT22;6994;49.752;6.094;2023-05-10T03:20:27;13.10;99.90
13848;DHT22;6994;49.752;6.094;2023-05-10T03:22:59;13.10;99.90
13848;DHT22;6994;49.752;6.094;2023-05-10T03:25:23;13.00;99.90
13848;DHT22;6994;49.752;6.094;2023-05-10T03:27:50;12.90;99.90
13848;DHT22;6994;49.752;6.094;2023-05-10T03:30:17;12.90;99.90
13848;DHT22;6994;49.752;6.094;2023-05-10T03:32:44;12.80;99.90
13848;DHT22;6994;49.752;6.094;2023-05-10T03:35:12;12.80;99.90
13848;DHT22;6994;49.752;6.094;2023-05-10T03:37:39;12.80;99.90
13848;DHT22;6994;49.752;6.094;2023-05-10T03:40:06;12.70;99.90
13848;DHT22;6994;49.752;6.094;2023-05-10T03:42:33;12.80;99.90
13848;DHT22;6994;49.752;6.094;2023-05-10T03:45:00;12.80;99.90
13848;DHT22;6994;49.752;6.094;2023-05-10T03:47:27;12.70;99.90
13848;DHT22;6994;49.752;6.094;2023-05-10T03:49:55;12.60;99.90
13848;DHT22;6994;49.752;6.094;2023-05-10T03:52:23;12.50;99.90
13848;DHT22;6994;49.752;6.094;2023-05-10T03:54:51;12.40;99.90
13848;DHT22;6994;49.752;6.094;2023-05-10T03:57:19;12.30;99.90
13848;DHT22;6994;49.752;6.094;2023-05-10T03:59:46;12.30;99.90
13848;DHT22;6994;49.752;6.094;2023-05-10T04:02:13;12.30;99.90
13848;DHT22;6994;49.752;6.094;2023-05-10T04:04:41;12.50;99.90
13848;DHT22;6994;49.752;6.094;2023-05-10T04:07:08;12.40;99.90
13848;DHT22;6994;49.752;6.094;2023-05-10T04:09:35;12.40;99.90
13848;DHT22;6994;49.752;6.094;2023-05-10T04:12:03;12.30;99.90
13848;DHT22;6994;49.752;6.094;2023-05-10T04:14:30;12.50;99.90
13848;DHT22;6994;49.752;6.094;2023-05-10T04:16:57;12.50;99.90
13848;DHT22;6994;49.752;6.094;2023-05-10T04:19:28;12.40;99.90
13848;DHT22;6994;49.752;6.094;2023-05-10T04:21:51;12.40;99.90
13848;DHT22;6994;49.752;6.094;2023-05-10T04:24:19;12.30;99.90
13848;DHT22;6994;49.752;6.094;2023-05-10T04:26:46;12.30;99.90
13848;DHT22;6994;49.752;6.094;2023-05-10T04:29:14;12.20;99.90
13848;DHT22;6994;49.752;6.094;2023-05-10T04:31:42;12.20;99.90
13848;DHT22;6994;49.752;6.094;2023-05-10T04:34:10;12.20;99.90
13848;DHT22;6994;49.752;6.094;2023-05-10T04:36:37;12.20;99.90
13848;DHT22;6994;49.752;6.094;2023-05-10T04:39:04;12.20;99.90
13848;DHT22;6994;49.752;6.094;2023-05-10T04:41:31;12.20;99.90
13848;DHT22;6994;49.752;6.094;2023-05-10T04:43:59;12.40;99.90
13848;DHT22;6994;49.752;6.094;2023-05-10T04:46:26;12.50;99.90
13848;DHT22;6994;49.752;6.094;2023-05-10T04:48:53;12.40;99.90
13848;DHT22;6994;49.752;6.094;2023-05-10T04:51:20;12.40;99.90
13848;DHT22;6994;49.752;6.094;2023-05-10T04:53:47;12.60;99.90
13848;DHT22;6994;49.752;6.094;2023-05-10T04:56:15;12.60;99.90
13848;DHT22;6994;49.752;6.094;2023-05-10T04:58:42;12.60;99.90
13848;DHT22;6994;49.752;6.094;2023-05-10T05:01:09;12.60;99.90
13848;DHT22;6994;49.752;6.094;2023-05-10T05:03:37;12.50;99.90
13848;DHT22;6994;49.752;6.094;2023-05-10T05:06:05;12.60;99.90
13848;DHT22;6994;49.752;6.094;2023-05-10T05:08:32;12.50;99.90
13848;DHT22;6994;49.752;6.094;2023-05-10T05:10:59;12.50;99.90
13848;DHT22;6994;49.752;6.094;2023-05-10T05:13:27;12.50;99.90
13848;DHT22;6994;49.752;6.094;2023-05-10T05:15:54;12.50;99.90
13848;DHT22;6994;49.752;6.094;2023-05-10T05:18:21;12.30;99.90
13848;DHT22;6994;49.752;6.094;2023-05-10T05:20:48;12.40;99.90
13848;DHT22;6994;49.752;6.094;2023-05-10T05:23:15;12.40;99.90
13848;DHT22;6994;49.752;6.094;2023-05-10T05:25:43;12.50;99.90
13848;DHT22;6994;49.752;6.094;2023-05-10T05:28:10;12.50;99.90
13848;DHT22;6994;49.752;6.094;2023-05-10T05:30:37;12.60;99.90
13848;DHT22;6994;49.752;6.094;2023-05-10T05:33:04;12.50;99.90
13848;DHT22;6994;49.752;6.094;2023-05-10T05:35:31;12.40;99.90
13848;DHT22;6994;49.752;6.094;2023-05-10T05:37:59;12.30;99.90
13848;DHT22;6994;49.752;6.094;2023-05-10T05:40:27;12.30;99.90
13848;DHT22;6994;49.752;6.094;2023-05-10T05:42:54;12.60;99.90
13848;DHT22;6994;49.752;6.094;2023-05-10T05:45:22;12.70;99.90
13848;DHT22;6994;49.752;6.094;2023-05-10T05:47:50;13.00;99.90
13848;DHT22;6994;49.752;6.094;2023-05-10T05:50:18;13.10;99.90
13848;DHT22;6994;49.752;6.094;2023-05-10T05:52:46;13.10;99.90
13848;DHT22;6994;49.752;6.094;2023-05-10T05:55:14;13.10;99.90
13848;DHT22;6994;49.752;6.094;2023-05-10T05:57:41;13.00;99.90
13848;DHT22;6994;49.752;6.094;2023-05-10T06:00:08;13.00;99.90
13848;DHT22;6994;49.752;6.094;2023-05-10T06:02:35;13.00;99.90
13848;DHT22;6994;49.752;6.094;2023-05-10T06:05:02;13.10;99.90
13848;DHT22;6994;49.752;6.094;2023-05-10T06:07:30;13.40;99.90
13848;DHT22;6994;49.752;6.094;2023-05-10T06:09:57;13.40;99.90
13848;DHT22;6994;49.752;6.094;2023-05-10T06:12:24;13.40;99.90
13848;DHT22;6994;49.752;6.094;2023-05-10T06:14:51;13.40;99.90
13848;DHT22;6994;49.752;6.094;2023-05-10T06:17:18;13.30;99.90
13848;DHT22;6994;49.752;6.094;2023-05-10T06:19:46;13.30;99.90
13848;DHT22;6994;49.752;6.094;2023-05-10T06:22:14;13.30;99.90
13848;DHT22;6994;49.752;6.094;2023-05-10T06:24:41;13.30;99.90
13848;DHT22;6994;49.752;6.094;2023-05-10T06:27:08;13.40;99.90
13848;DHT22;6994;49.752;6.094;2023-05-10T06:29:35;13.50;99.90
13848;DHT22;6994;49.752;6.094;2023-05-10T06:32:02;13.60;99.90
13848;DHT22;6994;49.752;6.094;2023-05-10T06:34:30;13.70;99.90
13848;DHT22;6994;49.752;6.094;2023-05-10T06:36:57;13.70;99.90
13848;DHT22;6994;49.752;6.094;2023-05-10T06:39:24;13.70;99.90
13848;DHT22;6994;49.752;6.094;2023-05-10T06:41:51;13.70;99.90
13848;DHT22;6994;49.752;6.094;2023-05-10T06:44:18;13.80;99.90
13848;DHT22;6994;49.752;6.094;2023-05-10T06:46:46;13.90;99.90
13848;DHT22;6994;49.752;6.094;2023-05-10T06:49:14;13.90;99.90
13848;DHT22;6994;49.752;6.094;2023-05-10T06:51:41;14.00;99.90
13848;DHT22;6994;49.752;6.094;2023-05-10T06:54:09;14.20;99.90
13848;DHT22;6994;49.752;6.094;2023-05-10T06:56:36;14.20;99.90
13848;DHT22;6994;49.752;6.094;2023-05-10T06:59:03;14.20;99.90
13848;DHT22;6994;49.752;6.094;2023-05-10T07:01:30;14.20;99.90
13848;DHT22;6994;49.752;6.094;2023-05-10T07:03:58;14.10;99.90
13848;DHT22;6994;49.752;6.094;2023-05-10T07:06:25;14.10;99.90
13848;DHT22;6994;49.752;6.094;2023-05-10T07:08:52;14.00;99.90
13848;DHT22;6994;49.752;6.094;2023-05-10T07:11:19;14.00;99.90
13848;DHT22;6994;49.752;6.094;2023-05-10T07:13:46;14.20;99.90
13848;DHT22;6994;49.752;6.094;2023-05-10T07:16:14;14.20;99.90
13848;DHT22;6994;49.752;6.094;2023-05-10T07:18:41;14.50;99.90
13848;DHT22;6994;49.752;6.094;2023-05-10T07:21:08;14.50;99.90
13848;DHT22;6994;49.752;6.094;2023-05-10T07:23:35;14.50;99.90
13848;DHT22;6994;49.752;6.094;2023-05-10T07:26:02;14.60;99.90
13848;DHT22;6994;49.752;6.094;2023-05-10T07:28:30;14.80;99.90
13848;DHT22;6994;49.752;6.094;2023-05-10T07:30:57;14.90;99.90
13848;DHT22;6994;49.752;6.094;2023-05-10T07:33:24;15.00;99.90
13848;DHT22;6994;49.752;6.094;2023-05-10T07:35:51;15.10;99.90
13848;DHT22;6994;49.752;6.094;2023-05-10T07:38:18;15.50;99.90
13848;DHT22;6994;49.752;6.094;2023-05-10T07:40:46;15.60;99.90
13848;DHT22;6994;49.752;6.094;2023-05-10T07:43:13;15.50;99.90
13848;DHT22;6994;49.752;6.094;2023-05-10T07:45:40;15.50;99.90
13848;DHT22;6994;49.752;6.094;2023-05-10T07:48:07;15.90;99.90
13848;DHT22;6994;49.752;6.094;2023-05-10T07:50:35;16.10;99.90
13848;DHT22;6994;49.752;6.094;2023-05-10T07:53:02;16.10;99.90
13848;DHT22;6994;49.752;6.094;2023-05-10T07:55:29;16.10;99.90
13848;DHT22;6994;49.752;6.094;2023-05-10T07:57:56;16.00;99.90
13848;DHT22;6994;49.752;6.094;2023-05-10T08:00:23;15.80;99.90
13848;DHT22;6994;49.752;6.094;2023-05-10T08:02:51;15.80;99.90
13848;DHT22;6994;49.752;6.094;2023-05-10T08:05:18;15.40;99.90
13848;DHT22;6994;49.752;6.094;2023-05-10T08:07:45;15.20;99.90
13848;DHT22;6994;49.752;6.094;2023-05-10T08:10:12;14.90;99.90
13848;DHT22;6994;49.752;6.094;2023-05-10T08:12:39;14.70;99.90
13848;DHT22;6994;49.752;6.094;2023-05-10T08:15:07;14.50;99.90
13848;DHT22;6994;49.752;6.094;2023-05-10T08:17:35;14.50;99.90
13848;DHT22;6994;49.752;6.094;2023-05-10T08:20:03;14.40;99.90
13848;DHT22;6994;49.752;6.094;2023-05-10T08:22:30;14.30;99.90
13848;DHT22;6994;49.752;6.094;2023-05-10T08:24:57;14.10;99.90
13848;DHT22;6994;49.752;6.094;2023-05-10T08:27:24;14.10;99.90
13848;DHT22;6994;49.752;6.094;2023-05-10T08:29:51;13.90;99.90
13848;DHT22;6994;49.752;6.094;2023-05-10T08:32:19;13.70;99.90
13848;DHT22;6994;49.752;6.094;2023-05-10T08:34:46;13.70;99.90
13848;DHT22;6994;49.752;6.094;2023-05-10T08:37:13;13.60;99.90
13848;DHT22;6994;49.752;6.094;2023-05-10T08:39:40;13.50;99.90
13848;DHT22;6994;49.752;6.094;2023-05-10T08:42:07;13.40;99.90
13848;DHT22;6994;49.752;6.094;2023-05-10T08:44:35;13.40;99.90
13848;DHT22;6994;49.752;6.094;2023-05-10T08:47:05;13.30;99.90
13848;DHT22;6994;49.752;6.094;2023-05-10T08:49:32;13.30;99.90
13848;DHT22;6994;49.752;6.094;2023-05-10T08:51:59;13.30;99.90
13848;DHT22;6994;49.752;6.094;2023-05-10T08:54:27;13.30;99.90
13848;DHT22;6994;49.752;6.094;2023-05-10T08:56:55;13.40;99.90
13848;DHT22;6994;49.752;6.094;2023-05-10T08:59:22;13.30;99.90
13848;DHT22;6994;49.752;6.094;2023-05-10T09:01:49;13.40;99.90
13848;DHT22;6994;49.752;6.094;2023-05-10T09:04:17;13.60;99.90
13848;DHT22;6994;49.752;6.094;2023-05-10T09:06:44;14.00;99.90
13848;DHT22;6994;49.752;6.094;2023-05-10T09:09:11;14.20;99.90
13848;DHT22;6994;49.752;6.094;2023-05-10T09:11:38;14.30;99.90
13848;DHT22;6994;49.752;6.094;2023-05-10T09:14:06;14.40;99.90
13848;DHT22;6994;49.752;6.094;2023-05-10T09:16:33;14.40;99.90
13848;DHT22;6994;49.752;6.094;2023-05-10T09:19:01;14.40;99.90
13848;DHT22;6994;49.752;6.094;2023-05-10T09:21:28;14.40;99.90
13848;DHT22;6994;49.752;6.094;2023-05-10T09:23:55;14.40;99.90
13848;DHT22;6994;49.752;6.094;2023-05-10T09:26:23;14.40;99.90
13848;DHT22;6994;49.752;6.094;2023-05-10T09:28:53;14.50;99.90
13848;DHT22;6994;49.752;6.094;2023-05-10T09:31:19;14.60;99.90
13848;DHT22;6994;49.752;6.094;2023-05-10T09:33:47;14.80;99.90
13848;DHT22;6994;49.752;6.094;2023-05-10T09:36:14;15.00;99.90
13848;DHT22;6994;49.752;6.094;2023-05-10T09:38:51;15.40;99.90
13848;DHT22;6994;49.752;6.094;2023-05-10T09:41:19;15.60;99.90
13848;DHT22;6994;49.752;6.094;2023-05-10T09:43:46;15.70;99.90
13848;DHT22;6994;49.752;6.094;2023-05-10T09:46:17;15.70;99.90
13848;DHT22;6994;49.752;6.094;2023-05-10T09:48:45;15.70;99.90
13848;DHT22;6994;49.752;6.094;2023-05-10T09:51:21;15.90;99.90
13848;DHT22;6994;49.752;6.094;2023-05-10T09:53:48;16.40;99.90
13848;DHT22;6994;49.752;6.094;2023-05-10T09:56:32;16.50;99.90
13848;DHT22;6994;49.752;6.094;2023-05-10T09:58:42;16.50;99.90
13848;DHT22;6994;49.752;6.094;2023-05-10T10:01:13;16.50;99.90
13848;DHT22;6994;49.752;6.094;2023-05-10T10:03:43;16.40;99.90
13848;DHT22;6994;49.752;6.094;2023-05-10T10:06:10;16.30;99.90
13848;DHT22;6994;49.752;6.094;2023-05-10T10:08:37;16.30;99.90
13848;DHT22;6994;49.752;6.094;2023-05-10T10:11:04;16.50;99.90
13848;DHT22;6994;49.752;6.094;2023-05-10T10:13:31;16.50;99.90
13848;DHT22;6994;49.752;6.094;2023-05-10T10:15:59;16.50;99.90
13848;DHT22;6994;49.752;6.094;2023-05-10T10:18:27;16.50;99.90
13848;DHT22;6994;49.752;6.094;2023-05-10T10:20:55;16.60;99.90
13848;DHT22;6994;49.752;6.094;2023-05-10T10:23:22;16.60;99.90
13848;DHT22;6994;49.752;6.094;2023-05-10T10:25:49;16.60;99.90
13848;DHT22;6994;49.752;6.094;2023-05-10T10:28:21;16.70;99.90
13848;DHT22;6994;49.752;6.094;2023-05-10T10:30:45;17.10;99.90
13848;DHT22;6994;49.752;6.094;2023-05-10T10:33:33;17.20;99.90
13848;DHT22;6994;49.752;6.094;2023-05-10T10:35:59;17.50;99.90
13848;DHT22;6994;49.752;6.094;2023-05-10T10:38:35;17.50;99.90
13848;DHT22;6994;49.752;6.094;2023-05-10T10:41:10;17.80;99.90
13848;DHT22;6994;49.752;6.094;2023-05-10T10:43:37;17.80;99.90
13848;DHT22;6994;49.752;6.094;2023-05-10T10:46:16;17.60;99.90
13848;DHT22;6994;49.752;6.094;2023-05-10T10:51:37;17.90;99.90
13848;DHT22;6994;49.752;6.094;2023-05-10T10:54:10;17.80;99.90
13848;DHT22;6994;49.752;6.094;2023-05-10T10:56:38;17.70;99.90
13848;DHT22;6994;49.752;6.094;2023-05-10T10:59:05;17.50;99.90
13848;DHT22;6994;49.752;6.094;2023-05-10T11:01:32;17.40;99.90
13848;DHT22;6994;49.752;6.094;2023-05-10T11:06:30;17.30;99.90
13848;DHT22;6994;49.752;6.094;2023-05-10T11:08:56;17.40;99.90
13848;DHT22;6994;49.752;6.094;2023-05-10T11:11:24;17.40;99.90
13848;DHT22;6994;49.752;6.094;2023-05-10T11:13:51;17.90;99.90
13848;DHT22;6994;49.752;6.094;2023-05-10T11:16:21;18.00;99.90
13848;DHT22;6994;49.752;6.094;2023-05-10T11:18:54;18.10;99.90
13848;DHT22;6994;49.752;6.094;2023-05-10T11:21:21;18.50;99.90
13848;DHT22;6994;49.752;6.094;2023-05-10T11:23:48;18.50;99.90
13848;DHT22;6994;49.752;6.094;2023-05-10T11:26:15;18.50;99.90
13848;DHT22;6994;49.752;6.094;2023-05-10T11:28:43;18.70;99.90
13848;DHT22;6994;49.752;6.094;2023-05-10T11:31:10;18.70;99.90
13848;DHT22;6994;49.752;6.094;2023-05-10T11:33:47;18.80;99.90
13848;DHT22;6994;49.752;6.094;2023-05-10T11:36:29;19.00;99.90
13848;DHT22;6994;49.752;6.094;2023-05-10T11:38:55;19.00;99.90
13848;DHT22;6994;49.752;6.094;2023-05-10T11:41:23;19.20;99.90
13848;DHT22;6994;49.752;6.094;2023-05-10T11:43:50;19.40;99.90
13848;DHT22;6994;49.752;6.094;2023-05-10T11:46:18;19.50;99.90
13848;DHT22;6994;49.752;6.094;2023-05-10T11:48:45;19.80;99.90
13848;DHT22;6994;49.752;6.094;2023-05-10T11:51:13;19.90;99.90
13848;DHT22;6994;49.752;6.094;2023-05-10T11:53:40;19.90;99.90
13848;DHT22;6994;49.752;6.094;2023-05-10T11:56:08;19.80;99.90
13848;DHT22;6994;49.752;6.094;2023-05-10T11:58:35;19.70;99.90
13848;DHT22;6994;49.752;6.094;2023-05-10T12:01:02;19.80;99.90
13848;DHT22;6994;49.752;6.094;2023-05-10T12:03:29;19.50;99.90
13848;DHT22;6994;49.752;6.094;2023-05-10T12:05:56;19.30;99.90
13848;DHT22;6994;49.752;6.094;2023-05-10T12:08:27;19.10;99.90
13848;DHT22;6994;49.752;6.094;2023-05-10T12:10:51;19.40;99.90
13848;DHT22;6994;49.752;6.094;2023-05-10T12:13:18;19.20;99.90
13848;DHT22;6994;49.752;6.094;2023-05-10T12:15:46;18.90;99.90
13848;DHT22;6994;49.752;6.094;2023-05-10T12:18:14;18.80;99.90
13848;DHT22;6994;49.752;6.094;2023-05-10T12:20:42;18.80;99.90
13848;DHT22;6994;49.752;6.094;2023-05-10T12:23:09;18.80;99.90
13848;DHT22;6994;49.752;6.094;2023-05-10T12:25:36;18.80;99.90
13848;DHT22;6994;49.752;6.094;2023-05-10T12:28:04;18.80;99.90
13848;DHT22;6994;49.752;6.094;2023-05-10T12:30:31;18.70;99.90
13848;DHT22;6994;49.752;6.094;2023-05-10T12:33:01;18.70;99.90
13848;DHT22;6994;49.752;6.094;2023-05-10T12:35:30;19.00;99.90
13848;DHT22;6994;49.752;6.094;2023-05-10T12:37:58;19.00;99.90
13848;DHT22;6994;49.752;6.094;2023-05-10T12:40:26;19.00;99.90
13848;DHT22;6994;49.752;6.094;2023-05-10T12:42:53;19.00;99.90
13848;DHT22;6994;49.752;6.094;2023-05-10T12:45:20;18.90;99.90
13848;DHT22;6994;49.752;6.094;2023-05-10T12:47:48;18.80;99.90
13848;DHT22;6994;49.752;6.094;2023-05-10T12:50:15;18.70;99.90
13848;DHT22;6994;49.752;6.094;2023-05-10T12:52:42;18.80;99.90
13848;DHT22;6994;49.752;6.094;2023-05-10T12:55:09;19.30;99.90
13848;DHT22;6994;49.752;6.094;2023-05-10T12:57:36;19.50;99.90
13848;DHT22;6994;49.752;6.094;2023-05-10T13:00:04;19.80;99.90
13848;DHT22;6994;49.752;6.094;2023-05-10T13:02:31;20.40;99.90
13848;DHT22;6994;49.752;6.094;2023-05-10T13:04:58;21.50;99.90
13848;DHT22;6994;49.752;6.094;2023-05-10T13:07:25;22.80;99.90
13848;DHT22;6994;49.752;6.094;2023-05-10T13:09:53;24.90;99.70
13848;DHT22;6994;49.752;6.094;2023-05-10T13:12:20;26.00;97.50
13848;DHT22;6994;49.752;6.094;2023-05-10T13:14:47;26.60;95.50
13848;DHT22;6994;49.752;6.094;2023-05-10T13:17:14;27.80;93.10
13848;DHT22;6994;49.752;6.094;2023-05-10T13:19:42;28.40;90.40
13848;DHT22;6994;49.752;6.094;2023-05-10T13:22:09;28.30;90.40
13848;DHT22;6994;49.752;6.094;2023-05-10T13:24:37;28.50;90.00
13848;DHT22;6994;49.752;6.094;2023-05-10T13:27:05;28.80;83.70
13848;DHT22;6994;49.752;6.094;2023-05-10T13:29:33;27.70;82.00
13848;DHT22;6994;49.752;6.094;2023-05-10T13:32:00;27.70;82.00
13848;DHT22;6994;49.752;6.094;2023-05-10T13:34:27;27.10;81.70
13848;DHT22;6994;49.752;6.094;2023-05-10T13:36:54;25.60;85.80
13848;DHT22;6994;49.752;6.094;2023-05-10T13:39:21;24.60;88.70
13848;DHT22;6994;49.752;6.094;2023-05-10T13:41:49;23.80;90.20
13848;DHT22;6994;49.752;6.094;2023-05-10T13:44:16;23.30;91.90
13848;DHT22;6994;49.752;6.094;2023-05-10T13:46:43;23.30;92.20
13848;DHT22;6994;49.752;6.094;2023-05-10T13:49:10;23.20;92.70
13848;DHT22;6994;49.752;6.094;2023-05-10T13:51:37;23.90;91.30
13848;DHT22;6994;49.752;6.094;2023-05-10T13:54:05;25.50;88.90
13848;DHT22;6994;49.752;6.094;2023-05-10T13:56:33;26.40;89.70
13848;DHT22;6994;49.752;6.094;2023-05-10T13:59:01;26.30;89.50
13848;DHT22;6994;49.752;6.094;2023-05-10T14:01:28;27.20;88.20
13848;DHT22;6994;49.752;6.094;2023-05-10T14:03:55;28.30;86.20
13848;DHT22;6994;49.752;6.094;2023-05-10T14:06:23;30.60;82.50
13848;DHT22;6994;49.752;6.094;2023-05-10T14:08:51;31.20;73.60
13848;DHT22;6994;49.752;6.094;2023-05-10T14:11:19;31.30;73.30
13848;DHT22;6994;49.752;6.094;2023-05-10T14:13:47;31.40;71.10
13848;DHT22;6994;49.752;6.094;2023-05-10T14:16:15;31.70;70.20
13848;DHT22;6994;49.752;6.094;2023-05-10T14:18:42;31.60;70.00
13848;DHT22;6994;49.752;6.094;2023-05-10T14:21:09;32.20;72.00
13848;DHT22;6994;49.752;6.094;2023-05-10T14:23:37;33.10;69.90
13848;DHT22;6994;49.752;6.094;2023-05-10T14:26:04;34.60;59.50
13848;DHT22;6994;49.752;6.094;2023-05-10T14:28:31;34.20;59.60
13848;DHT22;6994;49.752;6.094;2023-05-10T14:30:58;33.60;59.20
13848;DHT22;6994;49.752;6.094;2023-05-10T14:33:25;33.20;60.50
13848;DHT22;6994;49.752;6.094;2023-05-10T14:35:53;33.50;59.00
13848;DHT22;6994;49.752;6.094;2023-05-10T14:38:20;33.50;57.00
13848;DHT22;6994;49.752;6.094;2023-05-10T14:40:48;33.80;56.10
13848;DHT22;6994;49.752;6.094;2023-05-10T14:43:15;33.80;56.00
13848;DHT22;6994;49.752;6.094;2023-05-10T14:45:42;33.90;57.50
13848;DHT22;6994;49.752;6.094;2023-05-10T14:48:10;33.10;56.60
13848;DHT22;6994;49.752;6.094;2023-05-10T14:50:37;31.80;59.00
13848;DHT22;6994;49.752;6.094;2023-05-10T14:53:04;30.20;60.30
13848;DHT22;6994;49.752;6.094;2023-05-10T14:55:31;28.50;60.30
13848;DHT22;6994;49.752;6.094;2023-05-10T14:57:58;26.90;64.90
13848;DHT22;6994;49.752;6.094;2023-05-10T15:00:26;25.40;68.70
13848;DHT22;6994;49.752;6.094;2023-05-10T15:02:53;24.20;71.10
13848;DHT22;6994;49.752;6.094;2023-05-10T15:05:21;22.50;76.70
13848;DHT22;6994;49.752;6.094;2023-05-10T15:07:48;22.50;76.60
13848;DHT22;6994;49.752;6.094;2023-05-10T15:10:15;22.10;78.20
13848;DHT22;6994;49.752;6.094;2023-05-10T15:12:42;21.70;78.00
13848;DHT22;6994;49.752;6.094;2023-05-10T15:15:09;21.40;79.20
13848;DHT22;6994;49.752;6.094;2023-05-10T15:17:37;21.80;81.30
13848;DHT22;6994;49.752;6.094;2023-05-10T15:20:04;23.30;82.60
13848;DHT22;6994;49.752;6.094;2023-05-10T15:22:31;25.50;78.50
13848;DHT22;6994;49.752;6.094;2023-05-10T15:24:58;28.40;69.80
13848;DHT22;6994;49.752;6.094;2023-05-10T15:27:25;30.10;66.80
13848;DHT22;6994;49.752;6.094;2023-05-10T15:29:53;30.70;63.60
13848;DHT22;6994;49.752;6.094;2023-05-10T15:32:20;30.40;63.90
13848;DHT22;6994;49.752;6.094;2023-05-10T15:34:47;30.70;62.40
13848;DHT22;6994;49.752;6.094;2023-05-10T15:37:14;31.20;60.30
13848;DHT22;6994;49.752;6.094;2023-05-10T15:39:43;30.00;61.50
13848;DHT22;6994;49.752;6.094;2023-05-10T15:42:10;30.00;61.50
13848;DHT22;6994;49.752;6.094;2023-05-10T15:44:37;28.70;61.90
13848;DHT22;6994;49.752;6.094;2023-05-10T15:47:04;27.30;63.70
13848;DHT22;6994;49.752;6.094;2023-05-10T15:49:31;25.90;67.70
13848;DHT22;6994;49.752;6.094;2023-05-10T15:51:58;24.90;68.70
13848;DHT22;6994;49.752;6.094;2023-05-10T15:54:26;24.50;70.10
13848;DHT22;6994;49.752;6.094;2023-05-10T15:56:53;23.70;73.30
13848;DHT22;6994;49.752;6.094;2023-05-10T15:59:20;23.00;73.20
13848;DHT22;6994;49.752;6.094;2023-05-10T16:01:47;22.40;74.90
13848;DHT22;6994;49.752;6.094;2023-05-10T16:04:15;22.10;81.00
13848;DHT22;6994;49.752;6.094;2023-05-10T16:06:43;22.40;79.90